createdAt,value
2022-08-24T00:01:22.118Z,100643.25
2022-08-24T00:03:49.746Z,100648.47
2022-08-24T00:06:23.811Z,100647.72
2022-08-24T00:08:52.788Z,100649.63
2022-08-24T00:11:20.657Z,100645.34
2022-08-24T00:13:48.797Z,100650.56
2022-08-24T00:16:17.095Z,100647.94
2022-08-24T00:18:45.018Z,100656.53
2022-08-24T00:21:13.029Z,100653.06
2022-08-24T00:23:41.969Z,100652.25
2022-08-24T00:26:09.419Z,100658.31
2022-08-24T00:28:37.459Z,100651.31
2022-08-24T00:31:07.331Z,100652.25
2022-08-24T00:33:35.507Z,100654.22
2022-08-24T00:36:04.875Z,100656.06
2022-08-24T00:38:33.985Z,100638.34
2022-08-24T00:41:02.190Z,100659.75
2022-08-24T00:43:29.576Z,100658.03
2022-08-24T00:46:21.398Z,100667.69
2022-08-24T00:48:55.607Z,100661.56
2022-08-24T00:51:42.493Z,100668.53
2022-08-24T00:54:14.025Z,100665.13
2022-08-24T00:57:02.860Z,100660.66
2022-08-24T00:59:34.866Z,100669.41
2022-08-24T01:02:15.586Z,100659.75
2022-08-24T01:04:50.119Z,100663.41
2022-08-24T01:07:17.381Z,100662.56
2022-08-24T01:09:44.420Z,100648.91
2022-08-24T01:12:11.589Z,100663.41
2022-08-24T01:14:38.991Z,100662.56
2022-08-24T01:17:25.400Z,100650.53
2022-08-24T01:19:55.833Z,100667.09
2022-08-24T01:22:25.611Z,100661.19
2022-08-24T01:24:52.816Z,100672.47
2022-08-24T01:27:22.920Z,100668.13
2022-08-24T01:29:57.752Z,100663.84
2022-08-24T01:32:28.138Z,100660.50
2022-08-24T01:34:56.854Z,100658.81
2022-08-24T01:37:24.683Z,100650.94
2022-08-24T01:39:55.988Z,100658.81
2022-08-24T01:42:23.693Z,100656.97
2022-08-24T01:44:50.779Z,100654.47
2022-08-24T01:47:18.241Z,100660.38
2022-08-24T01:49:48.490Z,100658.59
2022-08-24T01:52:23.598Z,100665.63
2022-08-24T01:54:52.380Z,100665.63
2022-08-24T01:57:20.590Z,100672.56
2022-08-24T01:59:50.635Z,100667.47
2022-08-24T02:02:27.559Z,100672.56
2022-08-24T02:04:55.489Z,100663.13
2022-08-24T02:07:23.383Z,100671.72
2022-08-24T02:09:51.145Z,100676.13
2022-08-24T02:12:19.864Z,100664.06
2022-08-24T02:14:47.672Z,100673.78
2022-08-24T02:17:15.143Z,100681.66
2022-08-24T02:19:43.444Z,100680.06
2022-08-24T02:22:10.961Z,100679.16
2022-08-24T02:24:39.300Z,100669.69
2022-08-24T02:27:07.229Z,100655.88
2022-08-24T02:29:35.334Z,100672.25
2022-08-24T02:32:03.342Z,100669.81
2022-08-24T02:34:30.485Z,100664.81
2022-08-24T02:36:58.171Z,100668.13
2022-08-24T02:39:25.280Z,100659.56
2022-08-24T02:41:53.444Z,100666.38
2022-08-24T02:44:20.802Z,100669.94
2022-08-24T02:46:48.661Z,100671.75
2022-08-24T02:49:16.961Z,100666.63
2022-08-24T02:51:46.235Z,100666.50
2022-08-24T02:54:19.664Z,100665.03
2022-08-24T02:56:49.800Z,100662.09
2022-08-24T02:59:17.582Z,100674.31
2022-08-24T03:01:45.875Z,100668.41
2022-08-24T03:04:13.980Z,100680.53
2022-08-24T03:06:41.753Z,100683.34
2022-08-24T03:09:09.350Z,100690.66
2022-08-24T03:11:37.284Z,100678.47
2022-08-24T03:14:06.012Z,100685.28
2022-08-24T03:16:33.203Z,100674.75
2022-08-24T03:19:01.841Z,100685.13
2022-08-24T03:21:33.623Z,100676.53
2022-08-24T03:24:01.133Z,100677.41
2022-08-24T03:26:28.419Z,100682.78
2022-08-24T03:28:55.684Z,100687.00
2022-08-24T03:31:23.281Z,100694.75
2022-08-24T03:33:50.792Z,100681.84
2022-08-24T03:36:19.022Z,100698.97
2022-08-24T03:38:46.330Z,100704.19
2022-08-24T03:41:13.755Z,100706.78
2022-08-24T03:43:47.374Z,100701.53
2022-08-24T03:46:21.725Z,100706.66
2022-08-24T03:48:49.821Z,100704.19
2022-08-24T03:51:23.599Z,100712.75
2022-08-24T03:53:52.376Z,100723.25
2022-08-24T03:56:22.545Z,100719.94
2022-08-24T03:58:49.941Z,100719.94
2022-08-24T04:01:17.945Z,100718.25
2022-08-24T04:03:47.225Z,100714.69
2022-08-24T04:06:17.270Z,100725.19
2022-08-24T04:08:45.230Z,100714.81
2022-08-24T04:11:15.555Z,100734.88
2022-08-24T04:13:45.234Z,100724.34
2022-08-24T04:16:15.352Z,100728.78
2022-08-24T04:18:43.598Z,100730.44
2022-08-24T04:21:23.300Z,100737.41
2022-08-24T04:23:55.190Z,100724.63
2022-08-24T04:26:44.085Z,100738.38
2022-08-24T04:29:17.921Z,100739.22
2022-08-24T04:31:50.075Z,100743.69
2022-08-24T04:34:18.683Z,100744.47
2022-08-24T04:36:46.929Z,100754.84
2022-08-24T04:39:14.846Z,100734.97
2022-08-24T04:42:14.580Z,100731.53
2022-08-24T04:44:42.916Z,100740.81
2022-08-24T04:47:10.065Z,100752.91
2022-08-24T04:49:39.146Z,100755.34
2022-08-24T04:52:08.438Z,100758.63
2022-08-24T04:54:35.663Z,100759.59
2022-08-24T04:57:08.522Z,100761.22
2022-08-24T04:59:36.569Z,100764.78
2022-08-24T05:02:03.850Z,100768.16
2022-08-24T05:04:31.275Z,100764.66
2022-08-24T05:06:59.006Z,100762.78
2022-08-24T05:09:27.244Z,100754.16
2022-08-24T05:11:55.825Z,100766.25
2022-08-24T05:14:29.033Z,100773.28
2022-08-24T05:16:56.799Z,100769.81
2022-08-24T05:19:25.024Z,100765.41
2022-08-24T05:21:52.870Z,100778.22
2022-08-24T05:24:20.405Z,100772.84
2022-08-24T05:26:48.149Z,100753.56
2022-08-24T05:29:17.323Z,100768.97
2022-08-24T05:31:48.633Z,100767.84
2022-08-24T05:34:16.554Z,100754.66
2022-08-24T05:36:44.151Z,100757.72
2022-08-24T05:39:19.650Z,100753.09
2022-08-24T05:41:54.349Z,100755.50
2022-08-24T05:44:31.055Z,100750.63
2022-08-24T05:47:02.993Z,100745.06
2022-08-24T05:49:31.385Z,100742.50
2022-08-24T05:51:59.161Z,100763.78
2022-08-24T05:54:27.155Z,100758.38
2022-08-24T05:57:02.339Z,100762.59
2022-08-24T05:59:31.371Z,100758.31
2022-08-24T06:02:02.452Z,100772.75
2022-08-24T06:04:29.935Z,100777.88
2022-08-24T06:06:57.035Z,100772.50
2022-08-24T06:09:24.513Z,100767.25
2022-08-24T06:11:52.840Z,100771.28
2022-08-24T06:14:22.862Z,100768.94
2022-08-24T06:16:57.525Z,100769.72
2022-08-24T06:19:27.122Z,100786.41
2022-08-24T06:21:55.901Z,100785.63
2022-08-24T06:24:45.733Z,100779.59
2022-08-24T06:27:24.050Z,100781.28
2022-08-24T06:30:00.027Z,100775.00
2022-08-24T06:32:50.508Z,100777.63
2022-08-24T06:35:47.861Z,100778.41
2022-08-24T06:38:15.468Z,100776.63
2022-08-24T06:40:45.743Z,100786.16
2022-08-24T06:43:13.924Z,100782.59
2022-08-24T06:45:55.093Z,100784.28
2022-08-24T06:48:28.284Z,100776.50
2022-08-24T06:50:55.552Z,100779.03
2022-08-24T06:53:22.729Z,100782.13
2022-08-24T06:55:55.896Z,100782.50
2022-08-24T06:58:24.366Z,100753.50
2022-08-24T07:00:51.736Z,100775.41
2022-08-24T07:03:21.250Z,100776.97
2022-08-24T07:05:58.053Z,100780.41
2022-08-24T07:08:41.960Z,100788.69
2022-08-24T07:11:10.222Z,100778.66
2022-08-24T07:13:38.605Z,100788.47
2022-08-24T07:16:06.172Z,100780.13
2022-08-24T07:18:36.049Z,100780.69
2022-08-24T07:21:04.590Z,100782.66
2022-08-24T07:23:42.274Z,100793.22
2022-08-24T07:26:21.724Z,100775.59
2022-08-24T07:28:53.944Z,100782.50
2022-08-24T07:31:22.530Z,100785.06
2022-08-24T07:34:09.728Z,100784.41
2022-08-24T07:36:44.350Z,100783.88
2022-08-24T07:39:12.484Z,100787.03
2022-08-24T07:42:02.657Z,100791.31
2022-08-24T07:44:31.467Z,100790.28
2022-08-24T07:47:04.096Z,100795.47
2022-08-24T07:49:45.803Z,100788.53
2022-08-24T07:52:13.648Z,100783.56
2022-08-24T07:54:41.316Z,100789.16
2022-08-24T07:57:08.944Z,100784.72
2022-08-24T07:59:37.828Z,100794.00
2022-08-24T08:02:05.828Z,100780.59
2022-08-24T08:04:33.517Z,100777.94
2022-08-24T08:07:03.635Z,100784.03
2022-08-24T08:09:33.881Z,100786.66
2022-08-24T08:12:01.074Z,100777.34
2022-08-24T08:14:28.163Z,100782.75
2022-08-24T08:16:56.164Z,100776.00
2022-08-24T08:19:23.653Z,100762.19
2022-08-24T08:22:11.693Z,100769.50
2022-08-24T08:25:19.440Z,100778.31
2022-08-24T08:27:47.426Z,100780.91
2022-08-24T08:30:15.866Z,100790.59
2022-08-24T08:32:43.491Z,100778.38
2022-08-24T08:35:11.111Z,100781.84
2022-08-24T08:37:39.667Z,100777.41
2022-08-24T08:40:13.466Z,100771.88
2022-08-24T08:43:09.978Z,100783.13
2022-08-24T08:46:29.918Z,100784.19
2022-08-24T08:49:54.868Z,100791.47
2022-08-24T08:52:37.152Z,100791.41
2022-08-24T08:55:23.832Z,100800.97
2022-08-24T08:58:17.611Z,100799.25
2022-08-24T09:00:50.051Z,100797.13
2022-08-24T09:03:37.266Z,100800.75
2022-08-24T09:07:05.325Z,100798.09
2022-08-24T09:09:50.381Z,100805.41
2022-08-24T09:12:36.287Z,100804.34
2022-08-24T09:15:30.820Z,100807.53
2022-08-24T09:18:10.857Z,100806.22
2022-08-24T09:20:37.826Z,100810.88
2022-08-24T09:23:36.911Z,100799.34
2022-08-24T09:26:18.912Z,100789.25
2022-08-24T09:28:49.503Z,100810.38
2022-08-24T09:31:23.064Z,100812.38
2022-08-24T09:34:02.820Z,100804.94
2022-08-24T09:36:52.941Z,100807.88
2022-08-24T09:39:19.984Z,100810.41
2022-08-24T09:42:22.820Z,100816.81
2022-08-24T09:44:52.838Z,100817.03
2022-08-24T09:47:32.645Z,100807.19
2022-08-24T09:50:33.630Z,100808.78
2022-08-24T09:53:25.431Z,100807.94
2022-08-24T09:56:14.359Z,100816.81
2022-08-24T09:58:47.129Z,100810.88
2022-08-24T10:01:28.113Z,100810.84
2022-08-24T10:04:03.125Z,100814.00
2022-08-24T10:07:05.806Z,100810.94
2022-08-24T10:09:53.221Z,100808.44
2022-08-24T10:12:32.792Z,100802.72
2022-08-24T10:15:35.690Z,100809.50
2022-08-24T10:18:47.425Z,100814.16
2022-08-24T10:21:46.841Z,100801.94
2022-08-24T10:24:37.471Z,100812.56
2022-08-24T10:27:09.765Z,100812.56
2022-08-24T10:29:56.296Z,100809.81
2022-08-24T10:32:43.702Z,100816.72
2022-08-24T10:35:18.125Z,100824.47
2022-08-24T10:38:21.830Z,100819.13
2022-08-24T10:41:01.002Z,100809.66
2022-08-24T10:44:19.085Z,100816.28
2022-08-24T10:46:58.386Z,100819.19
2022-08-24T10:49:48.866Z,100816.75
2022-08-24T10:52:34.181Z,100821.31
2022-08-24T10:55:22.865Z,100812.59
2022-08-24T10:57:52.803Z,100812.09
2022-08-24T11:00:22.811Z,100807.66
2022-08-24T11:03:05.179Z,100819.06
2022-08-24T11:05:39.927Z,100807.75
2022-08-24T11:08:07.454Z,100821.31
2022-08-24T11:10:37.472Z,100811.19
2022-08-24T11:13:24.164Z,100813.63
2022-08-24T11:16:00.366Z,100818.50
2022-08-24T11:18:47.133Z,100814.13
2022-08-24T11:21:33.394Z,100813.69
2022-08-24T11:24:26.922Z,100818.78
2022-08-24T11:27:24.866Z,100817.34
2022-08-24T11:29:52.226Z,100818.28
2022-08-24T11:32:29.261Z,100817.56
2022-08-24T11:35:03.030Z,100818.47
2022-08-24T11:37:36.550Z,100802.16
2022-08-24T11:40:06.694Z,100813.69
2022-08-24T11:43:02.380Z,100815.34
2022-08-24T11:46:04.116Z,100810.38
2022-08-24T11:48:49.725Z,100813.69
2022-08-24T11:51:22.447Z,100809.31
2022-08-24T11:53:59.931Z,100810.28
2022-08-24T11:56:42.238Z,100824.81
2022-08-24T11:59:24.046Z,100801.38
2022-08-24T12:01:59.196Z,100825.50
2022-08-24T12:04:35.549Z,100825.25
2022-08-24T12:07:15.348Z,100817.53
2022-08-24T12:10:01.987Z,100817.19
2022-08-24T12:12:41.074Z,100820.91
2022-08-24T12:15:23.475Z,100821.09
2022-08-24T12:18:05.498Z,100819.28
2022-08-24T12:20:41.843Z,100827.53
2022-08-24T12:23:22.689Z,100822.41
2022-08-24T12:26:03.939Z,100817.69
2022-08-24T12:28:44.732Z,100817.72
2022-08-24T12:31:22.186Z,100812.88
2022-08-24T12:33:54.624Z,100809.03
2022-08-24T12:36:31.168Z,100809.63
2022-08-24T12:39:14.871Z,100810.47
2022-08-24T12:41:55.211Z,100815.34
2022-08-24T12:44:31.635Z,100813.38
2022-08-24T12:46:59.311Z,100818.94
2022-08-24T12:49:56.398Z,100824.25
2022-08-24T12:52:44.868Z,100813.84
2022-08-24T12:55:41.030Z,100814.06
2022-08-24T12:58:34.519Z,100816.59
2022-08-24T13:01:07.074Z,100803.94
2022-08-24T13:03:41.663Z,100810.22
2022-08-24T13:06:17.597Z,100810.25
2022-08-24T13:08:49.246Z,100814.84
2022-08-24T13:11:17.176Z,100815.34
2022-08-24T13:14:18.633Z,100811.94
2022-08-24T13:16:56.733Z,100813.00
2022-08-24T13:19:23.810Z,100808.25
2022-08-24T13:21:55.018Z,100809.28
2022-08-24T13:24:31.114Z,100808.88
2022-08-24T13:27:13.363Z,100805.97
2022-08-24T13:29:42.484Z,100814.59
2022-08-24T13:32:18.654Z,100813.75
2022-08-24T13:34:51.277Z,100819.06
2022-08-24T13:37:25.134Z,100817.34
2022-08-24T13:40:14.539Z,100814.16
2022-08-24T13:42:52.564Z,100821.56
2022-08-24T13:45:34.561Z,100806.66
2022-08-24T13:48:07.638Z,100813.75
2022-08-24T13:50:49.014Z,100811.72
2022-08-24T13:53:38.005Z,100819.44
2022-08-24T13:56:36.734Z,100813.09
2022-08-24T13:59:20.783Z,100819.59
2022-08-24T14:02:27.874Z,100817.59
2022-08-24T14:05:19.322Z,100818.16
2022-08-24T14:08:08.415Z,100817.00
2022-08-24T14:10:44.404Z,100807.25
2022-08-24T14:13:45.297Z,100806.13
2022-08-24T14:17:19.675Z,100792.13
2022-08-24T14:20:11.238Z,100812.72
2022-08-24T14:22:41.338Z,100812.84
2022-08-24T14:25:22.574Z,100804.69
2022-08-24T14:27:55.633Z,100797.69
2022-08-24T14:30:25.350Z,100799.59
2022-08-24T14:33:01.286Z,100801.50
2022-08-24T14:35:47.194Z,100802.25
2022-08-24T14:38:28.450Z,100795.97
2022-08-24T14:41:06.866Z,100799.34
2022-08-24T14:44:21.715Z,100796.41
2022-08-24T14:47:06.939Z,100789.59
2022-08-24T14:49:51.802Z,100795.16
2022-08-24T14:52:31.086Z,100794.31
2022-08-24T14:55:28.246Z,100796.03
2022-08-24T14:58:17.512Z,100791.78
2022-08-24T15:00:59.924Z,100786.22
2022-08-24T15:03:45.997Z,100795.16
2022-08-24T15:06:46.333Z,100789.84
2022-08-24T15:09:29.364Z,100785.59
2022-08-24T15:12:13.760Z,100780.63
2022-08-24T15:14:49.271Z,100787.31
2022-08-24T15:17:24.065Z,100783.41
2022-08-24T15:20:06.052Z,100780.56
2022-08-24T15:23:08.593Z,100782.56
2022-08-24T15:25:59.700Z,100783.94
2022-08-24T15:28:32.382Z,100788.63
2022-08-24T15:31:09.313Z,100789.72
2022-08-24T15:34:11.774Z,100790.00
2022-08-24T15:36:38.980Z,100786.53
2022-08-24T15:39:07.037Z,100782.91
2022-08-24T15:41:39.265Z,100784.81
2022-08-24T15:44:21.434Z,100776.13
2022-08-24T15:46:56.457Z,100783.78
2022-08-24T15:49:38.173Z,100798.19
2022-08-24T15:52:29.941Z,100780.97
2022-08-24T15:55:00.415Z,100775.81
2022-08-24T15:57:29.854Z,100778.44
2022-08-24T16:00:44.434Z,100781.41
2022-08-24T16:03:44.295Z,100777.38
2022-08-24T16:06:39.016Z,100777.59
2022-08-24T16:09:21.127Z,100778.66
2022-08-24T16:11:57.415Z,100778.66
2022-08-24T16:14:31.343Z,100781.53
2022-08-24T16:17:01.918Z,100778.13
2022-08-24T16:19:33.983Z,100779.25
2022-08-24T16:22:14.149Z,100786.69
2022-08-24T16:24:43.355Z,100787.53
2022-08-24T16:27:14.499Z,100799.09
2022-08-24T16:29:45.782Z,100797.69
2022-08-24T16:32:30.522Z,100789.94
2022-08-24T16:35:02.213Z,100794.50
2022-08-24T16:37:29.859Z,100793.00
2022-08-24T16:39:57.054Z,100799.47
2022-08-24T16:42:27.288Z,100803.19
2022-08-24T16:44:55.688Z,100800.63
2022-08-24T16:47:23.807Z,100807.81
2022-08-24T16:49:51.919Z,100806.13
2022-08-24T16:52:19.944Z,100813.34
2022-08-24T16:54:48.295Z,100811.66
2022-08-24T16:57:23.204Z,100813.53
2022-08-24T16:59:52.199Z,100810.13
2022-08-24T17:02:22.210Z,100806.75
2022-08-24T17:04:50.352Z,100814.16
2022-08-24T17:07:23.350Z,100812.44
2022-08-24T17:09:51.008Z,100813.50
2022-08-24T17:12:19.146Z,100818.16
2022-08-24T17:14:46.575Z,100818.34
2022-08-24T17:17:17.271Z,100825.75
2022-08-24T17:19:50.666Z,100824.06
2022-08-24T17:22:18.245Z,100830.41
2022-08-24T17:24:46.117Z,100828.78
2022-08-24T17:27:15.016Z,100834.34
2022-08-24T17:29:44.770Z,100841.88
2022-08-24T17:32:13.403Z,100843.00
2022-08-24T17:34:41.186Z,100837.03
2022-08-24T17:37:10.915Z,100842.53
2022-08-24T17:39:38.464Z,100845.47
2022-08-24T17:42:20.933Z,100833.56
2022-08-24T17:44:49.320Z,100847.00
2022-08-24T17:47:17.903Z,100837.75
2022-08-24T17:49:45.146Z,100846.63
2022-08-24T17:52:12.475Z,100846.06
2022-08-24T17:54:39.887Z,100851.66
2022-08-24T17:57:07.536Z,100849.28
2022-08-24T17:59:36.643Z,100858.34
2022-08-24T18:02:09.241Z,100862.28
2022-08-24T18:04:37.662Z,100864.38
2022-08-24T18:07:11.818Z,100861.91
2022-08-24T18:09:46.360Z,100868.31
2022-08-24T18:12:15.246Z,100872.94
2022-08-24T18:14:43.569Z,100861.03
2022-08-24T18:17:15.701Z,100869.06
2022-08-24T18:19:44.339Z,100867.72
2022-08-24T18:22:12.165Z,100868.75
2022-08-24T18:24:41.262Z,100864.69
2022-08-24T18:27:39.109Z,100867.50
2022-08-24T18:30:09.356Z,100878.34
2022-08-24T18:32:39.972Z,100876.00
2022-08-24T18:35:08.099Z,100872.75
2022-08-24T18:37:35.348Z,100871.22
2022-08-24T18:40:02.714Z,100867.81
2022-08-24T18:42:30.447Z,100869.81
2022-08-24T18:44:57.770Z,100874.63
2022-08-24T18:47:25.599Z,100875.00
2022-08-24T18:49:53.006Z,100878.84
2022-08-24T18:52:20.629Z,100878.25
2022-08-24T18:54:50.246Z,100871.22
2022-08-24T18:57:19.029Z,100868.16
2022-08-24T18:59:47.043Z,100876.03
2022-08-24T19:02:33.370Z,100871.75
2022-08-24T19:05:17.679Z,100872.97
2022-08-24T19:07:51.479Z,100882.88
2022-08-24T19:10:24.493Z,100888.31
2022-08-24T19:12:56.704Z,100879.78
2022-08-24T19:15:32.410Z,100885.09
2022-08-24T19:18:08.699Z,100885.22
2022-08-24T19:20:35.875Z,100885.56
2022-08-24T19:23:10.109Z,100899.72
2022-08-24T19:25:40.251Z,100892.88
2022-08-24T19:28:07.450Z,100891.38
2022-08-24T19:30:35.641Z,100892.88
2022-08-24T19:33:03.693Z,100885.13
2022-08-24T19:35:35.019Z,100873.66
2022-08-24T19:38:03.285Z,100883.69
2022-08-24T19:40:30.682Z,100887.38
2022-08-24T19:42:58.016Z,100887.44
2022-08-24T19:45:44.809Z,100878.94
2022-08-24T19:48:13.398Z,100870.53
2022-08-24T19:50:41.582Z,100879.06
2022-08-24T19:53:10.553Z,100879.16
2022-08-24T19:55:37.791Z,100874.88
2022-08-24T19:58:19.254Z,100886.09
2022-08-24T20:00:51.735Z,100887.06
2022-08-24T20:03:19.336Z,100891.50
2022-08-24T20:05:46.507Z,100893.38
2022-08-24T20:08:14.441Z,100900.50
2022-08-24T20:10:41.731Z,100874.06
2022-08-24T20:13:09.660Z,100893.00
2022-08-24T20:15:36.869Z,100898.22
2022-08-24T20:18:04.481Z,100896.66
2022-08-24T20:20:33.012Z,100899.47
2022-08-24T20:23:06.533Z,100879.19
2022-08-24T20:25:36.357Z,100911.16
2022-08-24T20:28:28.125Z,100912.06
2022-08-24T20:30:53.478Z,100900.31
2022-08-24T20:33:28.187Z,100919.22
2022-08-24T20:35:56.602Z,100915.19
2022-08-24T20:38:23.983Z,100923.13
2022-08-24T20:40:52.399Z,100926.69
2022-08-24T20:43:21.078Z,100924.28
2022-08-24T20:45:52.036Z,100915.84
2022-08-24T20:48:29.179Z,100929.06
2022-08-24T20:50:56.834Z,100927.31
2022-08-24T20:53:24.068Z,100917.09
2022-08-24T20:55:51.471Z,100937.09
2022-08-24T20:58:21.431Z,100945.19
2022-08-24T21:00:49.679Z,100949.09
2022-08-24T21:03:18.965Z,100950.94
2022-08-24T21:05:48.748Z,100949.38
2022-08-24T21:08:16.099Z,100943.41
2022-08-24T21:10:43.665Z,100947.84
2022-08-24T21:13:11.403Z,100939.13
2022-08-24T21:15:39.611Z,100941.00
2022-08-24T21:18:06.962Z,100948.84
2022-08-24T21:20:34.710Z,100950.81
2022-08-24T21:23:02.006Z,100950.91
2022-08-24T21:25:29.536Z,100952.00
2022-08-24T21:28:00.682Z,100957.59
2022-08-24T21:30:28.142Z,100952.47
2022-08-24T21:33:14.340Z,100949.81
2022-08-24T21:35:43.107Z,100942.03
2022-08-24T21:38:14.108Z,100943.75
2022-08-24T21:40:45.140Z,100945.78
2022-08-24T21:43:17.821Z,100948.41
2022-08-24T21:45:45.515Z,100940.66
2022-08-24T21:48:13.318Z,100949.34
2022-08-24T21:50:40.548Z,100949.47
2022-08-24T21:53:08.079Z,100953.06
2022-08-24T21:55:35.778Z,100954.91
2022-08-24T21:58:03.169Z,100952.56
2022-08-24T22:00:30.434Z,100958.91
2022-08-24T22:02:57.712Z,100950.50
2022-08-24T22:05:24.888Z,100963.47
2022-08-24T22:07:52.082Z,100962.78
2022-08-24T22:10:19.392Z,100942.28
2022-08-24T22:12:46.514Z,100956.25
2022-08-24T22:15:16.212Z,100963.22
2022-08-24T22:17:46.321Z,100966.78
2022-08-24T22:20:23.012Z,100958.09
2022-08-24T22:22:51.701Z,100950.31
2022-08-24T22:25:19.179Z,100957.34
2022-08-24T22:27:47.255Z,100952.28
2022-08-24T22:30:17.264Z,100934.81
2022-08-24T22:32:46.472Z,100942.72
2022-08-24T22:35:14.543Z,100927.97
2022-08-24T22:37:42.178Z,100935.88
2022-08-24T22:40:12.748Z,100927.44
2022-08-24T22:42:40.573Z,100927.59
2022-08-24T22:45:09.798Z,100915.34
2022-08-24T22:47:38.099Z,100918.94
2022-08-24T22:50:06.332Z,100912.09
2022-08-24T22:52:33.770Z,100903.38
2022-08-24T22:55:00.832Z,100892.84
2022-08-24T22:57:28.226Z,100892.84
2022-08-24T22:59:58.225Z,100879.69
2022-08-24T23:02:25.420Z,100872.78
2022-08-24T23:04:53.454Z,100859.69
2022-08-24T23:07:21.329Z,100849.31
2022-08-24T23:09:49.176Z,100843.16
2022-08-24T23:12:22.630Z,100841.53
2022-08-24T23:14:52.138Z,100842.44
2022-08-24T23:17:20.478Z,100828.50
2022-08-24T23:20:06.390Z,100819.84
2022-08-24T23:22:39.883Z,100807.56
2022-08-24T23:25:09.427Z,100804.16
2022-08-24T23:27:38.664Z,100796.34
2022-08-24T23:30:13.034Z,100798.81
2022-08-24T23:32:40.943Z,100790.22
2022-08-24T23:35:09.096Z,100792.06
2022-08-24T23:37:36.276Z,100786.81
2022-08-24T23:40:05.023Z,100779.06
2022-08-24T23:42:32.177Z,100788.66
2022-08-24T23:44:59.571Z,100769.59
2022-08-24T23:47:27.077Z,100778.28
2022-08-24T23:49:55.638Z,100781.75
2022-08-24T23:52:26.506Z,100781.84
2022-08-24T23:55:11.612Z,100783.69
2022-08-24T23:57:46.595Z,100788.53
